sensor_id;sensor_type;location;lat;lon;timestamp;pressure;altitude;pressure_sealevel;temperature;humidity
57232;BME280;43488;46.934;8.276;2023-04-22T00:02:05;95945.00;;;6.82;100.00
57232;BME280;43488;46.934;8.276;2023-04-22T00:04:32;95933.78;;;6.89;100.00
57232;BME280;43488;46.934;8.276;2023-04-22T00:07:00;95938.59;;;6.92;100.00
57232;BME280;43488;46.934;8.276;2023-04-22T00:09:28;95927.50;;;6.83;100.00
57232;BME280;43488;46.934;8.276;2023-04-22T00:12:02;95925.09;;;6.81;100.00
57232;BME280;43488;46.934;8.276;2023-04-22T00:14:30;95924.69;;;6.78;100.00
57232;BME280;43488;46.934;8.276;2023-04-22T00:16:59;95920.84;;;6.74;100.00
57232;BME280;43488;46.934;8.276;2023-04-22T00:19:27;95924.25;;;6.74;100.00
57232;BME280;43488;46.934;8.276;2023-04-22T00:21:54;95919.63;;;6.76;100.00
57232;BME280;43488;46.934;8.276;2023-04-22T00:24:21;95928.13;;;6.78;100.00
57232;BME280;43488;46.934;8.276;2023-04-22T00:26:50;95920.88;;;6.80;100.00
57232;BME280;43488;46.934;8.276;2023-04-22T00:29:17;95919.06;;;6.81;100.00
57232;BME280;43488;46.934;8.276;2023-04-22T00:31:44;95916.44;;;6.81;100.00
57232;BME280;43488;46.934;8.276;2023-04-22T00:34:22;95918.66;;;6.77;100.00
57232;BME280;43488;46.934;8.276;2023-04-22T00:36:49;95921.44;;;6.69;100.00
57232;BME280;43488;46.934;8.276;2023-04-22T00:39:17;95913.97;;;6.60;100.00
57232;BME280;43488;46.934;8.276;2023-04-22T00:41:45;95920.41;;;6.64;100.00
57232;BME280;43488;46.934;8.276;2023-04-22T00:44:13;95921.81;;;6.66;100.00
57232;BME280;43488;46.934;8.276;2023-04-22T00:46:55;95921.81;;;6.60;100.00
57232;BME280;43488;46.934;8.276;2023-04-22T00:49:34;95916.75;;;6.58;100.00
57232;BME280;43488;46.934;8.276;2023-04-22T00:52:02;95916.97;;;6.50;100.00
57232;BME280;43488;46.934;8.276;2023-04-22T00:54:31;95919.56;;;6.50;100.00
57232;BME280;43488;46.934;8.276;2023-04-22T00:57:05;95910.09;;;6.49;100.00
57232;BME280;43488;46.934;8.276;2023-04-22T00:59:32;95911.09;;;6.48;100.00
57232;BME280;43488;46.934;8.276;2023-04-22T01:02:00;95908.69;;;6.46;100.00
57232;BME280;43488;46.934;8.276;2023-04-22T01:04:42;95896.63;;;6.45;100.00
57232;BME280;43488;46.934;8.276;2023-04-22T01:07:09;95902.03;;;6.44;100.00
57232;BME280;43488;46.934;8.276;2023-04-22T01:09:37;95892.97;;;6.40;100.00
57232;BME280;43488;46.934;8.276;2023-04-22T01:12:06;95889.75;;;6.38;100.00
57232;BME280;43488;46.934;8.276;2023-04-22T01:14:34;95897.78;;;6.36;100.00
57232;BME280;43488;46.934;8.276;2023-04-22T01:17:01;95886.28;;;6.31;100.00
57232;BME280;43488;46.934;8.276;2023-04-22T01:19:35;95899.56;;;6.29;100.00
57232;BME280;43488;46.934;8.276;2023-04-22T01:22:04;95897.59;;;6.31;100.00
57232;BME280;43488;46.934;8.276;2023-04-22T01:24:34;95897.16;;;6.27;100.00
57232;BME280;43488;46.934;8.276;2023-04-22T01:27:03;95901.19;;;6.30;100.00
57232;BME280;43488;46.934;8.276;2023-04-22T01:29:31;95892.75;;;6.35;100.00
57232;BME280;43488;46.934;8.276;2023-04-22T01:31:59;95889.75;;;6.31;100.00
57232;BME280;43488;46.934;8.276;2023-04-22T01:34:27;95895.34;;;6.28;100.00
57232;BME280;43488;46.934;8.276;2023-04-22T01:36:55;95902.34;;;6.21;100.00
57232;BME280;43488;46.934;8.276;2023-04-22T01:39:23;95900.53;;;6.15;100.00
57232;BME280;43488;46.934;8.276;2023-04-22T01:41:50;95893.44;;;6.09;100.00
57232;BME280;43488;46.934;8.276;2023-04-22T01:44:38;95897.03;;;6.01;100.00
57232;BME280;43488;46.934;8.276;2023-04-22T01:47:05;95902.41;;;5.93;100.00
57232;BME280;43488;46.934;8.276;2023-04-22T01:49:32;95914.28;;;5.95;100.00
57232;BME280;43488;46.934;8.276;2023-04-22T01:52:00;95911.59;;;5.89;100.00
57232;BME280;43488;46.934;8.276;2023-04-22T01:54:27;95913.84;;;5.92;100.00
57232;BME280;43488;46.934;8.276;2023-04-22T01:56:55;95910.19;;;5.86;100.00
57232;BME280;43488;46.934;8.276;2023-04-22T01:59:25;95909.75;;;5.83;100.00
57232;BME280;43488;46.934;8.276;2023-04-22T02:01:52;95905.34;;;5.83;100.00
57232;BME280;43488;46.934;8.276;2023-04-22T02:04:19;95914.63;;;5.86;100.00
57232;BME280;43488;46.934;8.276;2023-04-22T02:06:46;95919.19;;;5.84;100.00
57232;BME280;43488;46.934;8.276;2023-04-22T02:09:13;95915.78;;;5.83;100.00
57232;BME280;43488;46.934;8.276;2023-04-22T02:11:41;95916.56;;;5.77;100.00
57232;BME280;43488;46.934;8.276;2023-04-22T02:14:08;95913.75;;;5.79;100.00
57232;BME280;43488;46.934;8.276;2023-04-22T02:16:35;95914.50;;;5.72;100.00
57232;BME280;43488;46.934;8.276;2023-04-22T02:19:09;95916.31;;;5.72;100.00
57232;BME280;43488;46.934;8.276;2023-04-22T02:21:56;95918.13;;;5.71;100.00
57232;BME280;43488;46.934;8.276;2023-04-22T02:24:24;95926.97;;;5.70;100.00
57232;BME280;43488;46.934;8.276;2023-04-22T02:26:51;95923.34;;;5.71;100.00
57232;BME280;43488;46.934;8.276;2023-04-22T02:29:18;95928.56;;;5.71;100.00
57232;BME280;43488;46.934;8.276;2023-04-22T02:31:46;95932.56;;;5.67;100.00
57232;BME280;43488;46.934;8.276;2023-04-22T02:34:13;95935.78;;;5.69;100.00
57232;BME280;43488;46.934;8.276;2023-04-22T02:36:40;95935.53;;;5.58;100.00
57232;BME280;43488;46.934;8.276;2023-04-22T02:39:08;95934.53;;;5.59;100.00
57232;BME280;43488;46.934;8.276;2023-04-22T02:41:35;95934.31;;;5.60;100.00
57232;BME280;43488;46.934;8.276;2023-04-22T02:44:02;95937.88;;;5.53;100.00
57232;BME280;43488;46.934;8.276;2023-04-22T02:46:30;95946.09;;;5.50;100.00
57232;BME280;43488;46.934;8.276;2023-04-22T02:49:06;95945.91;;;5.51;99.61
57232;BME280;43488;46.934;8.276;2023-04-22T02:51:39;95948.41;;;5.38;98.25
57232;BME280;43488;46.934;8.276;2023-04-22T02:54:07;95948.41;;;5.38;98.98
57232;BME280;43488;46.934;8.276;2023-04-22T02:56:34;95948.41;;;5.38;100.00
57232;BME280;43488;46.934;8.276;2023-04-22T02:59:02;95951.66;;;5.40;100.00
57232;BME280;43488;46.934;8.276;2023-04-22T03:01:29;95947.03;;;5.42;100.00
57232;BME280;43488;46.934;8.276;2023-04-22T03:03:58;95949.03;;;5.40;100.00
57232;BME280;43488;46.934;8.276;2023-04-22T03:06:25;95956.47;;;5.43;100.00
57232;BME280;43488;46.934;8.276;2023-04-22T03:08:52;95953.47;;;5.46;100.00
57232;BME280;43488;46.934;8.276;2023-04-22T03:11:19;95953.47;;;5.46;100.00
57232;BME280;43488;46.934;8.276;2023-04-22T03:13:48;95949.25;;;5.45;100.00
57232;BME280;43488;46.934;8.276;2023-04-22T03:16:16;95943.44;;;5.43;100.00
57232;BME280;43488;46.934;8.276;2023-04-22T03:18:45;95944.78;;;5.39;100.00
57232;BME280;43488;46.934;8.276;2023-04-22T03:21:38;95950.19;;;5.37;99.66
57232;BME280;43488;46.934;8.276;2023-04-22T03:24:05;95956.34;;;5.30;98.82
57232;BME280;43488;46.934;8.276;2023-04-22T03:26:47;95950.22;;;5.16;97.05
57232;BME280;43488;46.934;8.276;2023-04-22T03:29:15;95961.38;;;5.10;100.00
57232;BME280;43488;46.934;8.276;2023-04-22T03:31:42;95966.63;;;5.10;100.00
57232;BME280;43488;46.934;8.276;2023-04-22T03:34:09;95959.59;;;5.10;100.00
57232;BME280;43488;46.934;8.276;2023-04-22T03:36:36;95961.47;;;5.17;100.00
57232;BME280;43488;46.934;8.276;2023-04-22T03:39:04;95964.47;;;5.13;100.00
57232;BME280;43488;46.934;8.276;2023-04-22T03:41:31;95963.00;;;5.11;100.00
57232;BME280;43488;46.934;8.276;2023-04-22T03:43:58;95965.06;;;5.16;100.00
57232;BME280;43488;46.934;8.276;2023-04-22T03:46:28;95975.13;;;5.19;100.00
57232;BME280;43488;46.934;8.276;2023-04-22T03:49:01;95973.50;;;5.18;100.00
57232;BME280;43488;46.934;8.276;2023-04-22T03:51:29;95978.94;;;5.16;100.00
57232;BME280;43488;46.934;8.276;2023-04-22T03:53:56;95981.97;;;5.20;100.00
57232;BME280;43488;46.934;8.276;2023-04-22T03:56:24;95985.34;;;5.13;100.00
57232;BME280;43488;46.934;8.276;2023-04-22T03:58:52;95984.69;;;5.11;100.00
57232;BME280;43488;46.934;8.276;2023-04-22T04:01:19;95981.47;;;5.09;100.00
57232;BME280;43488;46.934;8.276;2023-04-22T04:03:48;95980.47;;;5.10;100.00
57232;BME280;43488;46.934;8.276;2023-04-22T04:06:16;95983.25;;;5.09;100.00
57232;BME280;43488;46.934;8.276;2023-04-22T04:08:49;95967.00;;;5.07;100.00
57232;BME280;43488;46.934;8.276;2023-04-22T04:11:17;95980.22;;;5.05;100.00
57232;BME280;43488;46.934;8.276;2023-04-22T04:13:45;95978.44;;;5.06;100.00
57232;BME280;43488;46.934;8.276;2023-04-22T04:16:12;95983.06;;;5.10;100.00
57232;BME280;43488;46.934;8.276;2023-04-22T04:18:39;95982.25;;;5.10;100.00
57232;BME280;43488;46.934;8.276;2023-04-22T04:21:06;95980.47;;;5.10;100.00
57232;BME280;43488;46.934;8.276;2023-04-22T04:23:37;95989.75;;;5.13;100.00
57232;BME280;43488;46.934;8.276;2023-04-22T04:26:05;95974.25;;;5.11;100.00
57232;BME280;43488;46.934;8.276;2023-04-22T04:28:33;95988.88;;;5.06;99.65
57232;BME280;43488;46.934;8.276;2023-04-22T04:31:01;95985.00;;;5.02;99.74
57232;BME280;43488;46.934;8.276;2023-04-22T04:33:29;95993.81;;;5.01;100.00
57232;BME280;43488;46.934;8.276;2023-04-22T04:35:58;95994.28;;;5.04;100.00
57232;BME280;43488;46.934;8.276;2023-04-22T04:38:25;95982.75;;;4.99;100.00
57232;BME280;43488;46.934;8.276;2023-04-22T04:40:53;95988.41;;;5.02;100.00
57232;BME280;43488;46.934;8.276;2023-04-22T04:43:22;95982.22;;;5.03;100.00
57232;BME280;43488;46.934;8.276;2023-04-22T04:45:52;95987.06;;;5.06;100.00
57232;BME280;43488;46.934;8.276;2023-04-22T04:48:19;95989.66;;;5.06;100.00
57232;BME280;43488;46.934;8.276;2023-04-22T04:50:46;95996.22;;;5.02;100.00
57232;BME280;43488;46.934;8.276;2023-04-22T04:53:13;95992.28;;;5.06;100.00
57232;BME280;43488;46.934;8.276;2023-04-22T04:55:41;96004.31;;;5.07;100.00
57232;BME280;43488;46.934;8.276;2023-04-22T04:58:08;95996.88;;;5.04;100.00
57232;BME280;43488;46.934;8.276;2023-04-22T05:00:39;96000.72;;;5.08;100.00
57232;BME280;43488;46.934;8.276;2023-04-22T05:03:06;96004.94;;;5.09;100.00
57232;BME280;43488;46.934;8.276;2023-04-22T05:05:33;96002.91;;;5.05;100.00
57232;BME280;43488;46.934;8.276;2023-04-22T05:08:00;96010.34;;;5.08;100.00
57232;BME280;43488;46.934;8.276;2023-04-22T05:10:28;96010.16;;;5.09;100.00
57232;BME280;43488;46.934;8.276;2023-04-22T05:13:04;96015.25;;;5.18;100.00
57232;BME280;43488;46.934;8.276;2023-04-22T05:15:32;96014.88;;;5.21;100.00
57232;BME280;43488;46.934;8.276;2023-04-22T05:17:59;96020.38;;;5.26;100.00
57232;BME280;43488;46.934;8.276;2023-04-22T05:20:27;96017.84;;;5.32;100.00
57232;BME280;43488;46.934;8.276;2023-04-22T05:22:54;96014.47;;;5.38;100.00
57232;BME280;43488;46.934;8.276;2023-04-22T05:25:21;96012.53;;;5.47;100.00
57232;BME280;43488;46.934;8.276;2023-04-22T05:27:52;96016.91;;;5.40;100.00
57232;BME280;43488;46.934;8.276;2023-04-22T05:30:19;96019.75;;;5.45;100.00
57232;BME280;43488;46.934;8.276;2023-04-22T05:32:46;96018.13;;;5.44;100.00
57232;BME280;43488;46.934;8.276;2023-04-22T05:35:14;96020.63;;;5.52;100.00
57232;BME280;43488;46.934;8.276;2023-04-22T05:37:41;96018.31;;;5.64;100.00
57232;BME280;43488;46.934;8.276;2023-04-22T05:40:12;96014.56;;;5.73;100.00
57232;BME280;43488;46.934;8.276;2023-04-22T05:42:42;96022.06;;;5.83;100.00
57232;BME280;43488;46.934;8.276;2023-04-22T05:45:10;96016.50;;;5.86;100.00
57232;BME280;43488;46.934;8.276;2023-04-22T05:47:38;96016.75;;;5.91;100.00
57232;BME280;43488;46.934;8.276;2023-04-22T05:50:06;96011.13;;;5.94;100.00
57232;BME280;43488;46.934;8.276;2023-04-22T05:52:33;96014.38;;;5.96;100.00
57232;BME280;43488;46.934;8.276;2023-04-22T05:55:01;96006.75;;;5.94;100.00
57232;BME280;43488;46.934;8.276;2023-04-22T05:57:28;96005.59;;;6.04;100.00
57232;BME280;43488;46.934;8.276;2023-04-22T05:59:57;96006.06;;;6.14;100.00
57232;BME280;43488;46.934;8.276;2023-04-22T06:02:30;96010.31;;;6.21;100.00
57232;BME280;43488;46.934;8.276;2023-04-22T06:04:57;96010.00;;;6.31;100.00
57232;BME280;43488;46.934;8.276;2023-04-22T06:07:31;96009.44;;;6.42;100.00
57232;BME280;43488;46.934;8.276;2023-04-22T06:09:59;96014.69;;;6.49;100.00
57232;BME280;43488;46.934;8.276;2023-04-22T06:12:32;96011.09;;;6.56;100.00
57232;BME280;43488;46.934;8.276;2023-04-22T06:15:00;96005.13;;;6.63;100.00
57232;BME280;43488;46.934;8.276;2023-04-22T06:17:27;96009.94;;;6.66;100.00
57232;BME280;43488;46.934;8.276;2023-04-22T06:19:55;96017.84;;;6.72;100.00
57232;BME280;43488;46.934;8.276;2023-04-22T06:22:23;96008.00;;;6.81;100.00
57232;BME280;43488;46.934;8.276;2023-04-22T06:24:51;96013.47;;;6.93;100.00
57232;BME280;43488;46.934;8.276;2023-04-22T06:27:18;96013.09;;;7.02;100.00
57232;BME280;43488;46.934;8.276;2023-04-22T06:29:45;96017.16;;;7.11;100.00
57232;BME280;43488;46.934;8.276;2023-04-22T06:32:12;96018.22;;;7.24;100.00
57232;BME280;43488;46.934;8.276;2023-04-22T06:34:39;96009.75;;;7.28;100.00
57232;BME280;43488;46.934;8.276;2023-04-22T06:37:08;96019.47;;;7.41;100.00
57232;BME280;43488;46.934;8.276;2023-04-22T06:39:35;96027.53;;;7.53;100.00
57232;BME280;43488;46.934;8.276;2023-04-22T06:42:03;96025.09;;;7.58;100.00
57232;BME280;43488;46.934;8.276;2023-04-22T06:44:30;96023.91;;;7.67;100.00
57232;BME280;43488;46.934;8.276;2023-04-22T06:46:58;96022.50;;;7.71;100.00
57232;BME280;43488;46.934;8.276;2023-04-22T06:49:25;96027.56;;;7.79;100.00
57232;BME280;43488;46.934;8.276;2023-04-22T06:51:52;96035.81;;;7.89;100.00
57232;BME280;43488;46.934;8.276;2023-04-22T06:54:19;96035.22;;;8.01;100.00
57232;BME280;43488;46.934;8.276;2023-04-22T06:56:47;96035.59;;;8.11;100.00
57232;BME280;43488;46.934;8.276;2023-04-22T06:59:14;96050.13;;;8.20;100.00
57232;BME280;43488;46.934;8.276;2023-04-22T07:01:41;96032.78;;;8.25;100.00
57232;BME280;43488;46.934;8.276;2023-04-22T07:04:09;96037.00;;;8.33;100.00
57232;BME280;43488;46.934;8.276;2023-04-22T07:06:36;96043.84;;;8.41;100.00
57232;BME280;43488;46.934;8.276;2023-04-22T07:09:03;96045.28;;;8.37;100.00
57232;BME280;43488;46.934;8.276;2023-04-22T07:11:31;96042.84;;;8.48;100.00
57232;BME280;43488;46.934;8.276;2023-04-22T07:13:58;96040.59;;;8.59;100.00
57232;BME280;43488;46.934;8.276;2023-04-22T07:16:26;96042.63;;;8.63;98.92
57232;BME280;43488;46.934;8.276;2023-04-22T07:18:54;96045.81;;;8.72;98.23
57232;BME280;43488;46.934;8.276;2023-04-22T07:21:21;96038.91;;;8.84;100.00
57232;BME280;43488;46.934;8.276;2023-04-22T07:23:50;96030.38;;;8.95;100.00
57232;BME280;43488;46.934;8.276;2023-04-22T07:26:18;96038.66;;;9.05;100.00
57232;BME280;43488;46.934;8.276;2023-04-22T07:28:45;96035.97;;;9.12;98.93
57232;BME280;43488;46.934;8.276;2023-04-22T07:31:13;96035.94;;;9.19;97.94
57232;BME280;43488;46.934;8.276;2023-04-22T07:33:40;96042.94;;;9.31;98.21
57232;BME280;43488;46.934;8.276;2023-04-22T07:36:09;96049.16;;;9.44;99.43
57232;BME280;43488;46.934;8.276;2023-04-22T07:38:36;96042.56;;;9.59;98.08
57232;BME280;43488;46.934;8.276;2023-04-22T07:41:03;96043.94;;;9.68;97.33
57232;BME280;43488;46.934;8.276;2023-04-22T07:43:31;96040.19;;;9.83;98.07
57232;BME280;43488;46.934;8.276;2023-04-22T07:45:58;96040.69;;;9.98;94.38
57232;BME280;43488;46.934;8.276;2023-04-22T07:48:25;96041.78;;;10.15;93.24
57232;BME280;43488;46.934;8.276;2023-04-22T07:50:53;96029.09;;;10.31;93.64
57232;BME280;43488;46.934;8.276;2023-04-22T07:53:20;96033.88;;;10.40;94.66
57232;BME280;43488;46.934;8.276;2023-04-22T07:55:52;96036.97;;;10.56;95.74
57232;BME280;43488;46.934;8.276;2023-04-22T07:58:19;96033.59;;;10.67;96.42
57232;BME280;43488;46.934;8.276;2023-04-22T08:00:49;96028.84;;;10.75;96.36
57232;BME280;43488;46.934;8.276;2023-04-22T08:03:18;96029.94;;;10.86;95.17
57232;BME280;43488;46.934;8.276;2023-04-22T08:05:46;96025.75;;;10.97;92.01
57232;BME280;43488;46.934;8.276;2023-04-22T08:08:15;96033.25;;;11.00;91.52
57232;BME280;43488;46.934;8.276;2023-04-22T08:10:48;96047.72;;;11.09;90.23
57232;BME280;43488;46.934;8.276;2023-04-22T08:13:19;96041.66;;;11.08;92.35
57232;BME280;43488;46.934;8.276;2023-04-22T08:15:47;96047.53;;;11.22;92.61
57232;BME280;43488;46.934;8.276;2023-04-22T08:18:15;96047.16;;;11.37;91.65
57232;BME280;43488;46.934;8.276;2023-04-22T08:20:44;96052.94;;;11.46;90.63
57232;BME280;43488;46.934;8.276;2023-04-22T08:23:11;96064.94;;;11.42;89.74
57232;BME280;43488;46.934;8.276;2023-04-22T08:25:39;96057.63;;;11.44;89.31
57232;BME280;43488;46.934;8.276;2023-04-22T08:28:06;96050.22;;;11.52;90.43
57232;BME280;43488;46.934;8.276;2023-04-22T08:31:11;96050.34;;;11.69;88.28
57232;BME280;43488;46.934;8.276;2023-04-22T08:33:40;96063.72;;;11.86;88.44
57232;BME280;43488;46.934;8.276;2023-04-22T08:36:14;96064.47;;;12.05;89.96
57232;BME280;43488;46.934;8.276;2023-04-22T08:38:48;96056.34;;;12.18;92.23
57232;BME280;43488;46.934;8.276;2023-04-22T08:41:22;96050.94;;;12.24;89.77
57232;BME280;43488;46.934;8.276;2023-04-22T08:44:01;96047.16;;;12.20;85.60
57232;BME280;43488;46.934;8.276;2023-04-22T08:46:39;96046.13;;;12.33;86.01
57232;BME280;43488;46.934;8.276;2023-04-22T08:49:09;96041.56;;;12.40;87.45
57232;BME280;43488;46.934;8.276;2023-04-22T08:51:38;96020.78;;;12.44;85.48
57232;BME280;43488;46.934;8.276;2023-04-22T08:54:10;96012.75;;;12.62;87.62
57232;BME280;43488;46.934;8.276;2023-04-22T08:56:43;96004.34;;;12.65;86.47
57232;BME280;43488;46.934;8.276;2023-04-22T08:59:12;96000.31;;;12.74;86.33
57232;BME280;43488;46.934;8.276;2023-04-22T09:01:56;95995.28;;;12.73;77.91
57232;BME280;43488;46.934;8.276;2023-04-22T09:04:25;95985.47;;;12.85;81.46
57232;BME280;43488;46.934;8.276;2023-04-22T09:06:53;95980.75;;;12.87;76.24
57232;BME280;43488;46.934;8.276;2023-04-22T09:09:21;95976.25;;;12.99;83.12
57232;BME280;43488;46.934;8.276;2023-04-22T09:11:56;95977.69;;;13.07;80.47
57232;BME280;43488;46.934;8.276;2023-04-22T09:14:25;95979.97;;;13.15;79.48
57232;BME280;43488;46.934;8.276;2023-04-22T09:16:53;95971.56;;;13.30;79.79
57232;BME280;43488;46.934;8.276;2023-04-22T09:19:25;95965.22;;;13.31;77.47
57232;BME280;43488;46.934;8.276;2023-04-22T09:21:52;95960.66;;;13.43;80.07
57232;BME280;43488;46.934;8.276;2023-04-22T09:24:23;95958.03;;;13.43;81.75
57232;BME280;43488;46.934;8.276;2023-04-22T09:26:51;95952.19;;;13.41;80.56
57232;BME280;43488;46.934;8.276;2023-04-22T09:29:31;95947.16;;;13.56;84.77
57232;BME280;43488;46.934;8.276;2023-04-22T09:39:53;95952.44;;;14.07;79.97
57232;BME280;43488;46.934;8.276;2023-04-22T09:42:21;95935.75;;;14.06;73.96
57232;BME280;43488;46.934;8.276;2023-04-22T09:44:50;95941.63;;;14.64;70.33
57232;BME280;43488;46.934;8.276;2023-04-22T09:47:34;95933.06;;;14.40;73.35
57232;BME280;43488;46.934;8.276;2023-04-22T09:53:36;95928.78;;;14.77;74.31
57232;BME280;43488;46.934;8.276;2023-04-22T09:56:04;95875.06;;;18.66;60.67
57232;BME280;43488;46.934;8.276;2023-04-22T09:58:31;95915.31;;;15.33;69.95
57232;BME280;43488;46.934;8.276;2023-04-22T10:00:59;95923.25;;;15.33;73.51
57232;BME280;43488;46.934;8.276;2023-04-22T10:03:27;95920.94;;;15.36;72.00
57232;BME280;43488;46.934;8.276;2023-04-22T10:05:54;95923.53;;;15.31;66.70
57232;BME280;43488;46.934;8.276;2023-04-22T10:08:22;95921.47;;;15.39;64.09
57232;BME280;43488;46.934;8.276;2023-04-22T10:10:50;95917.78;;;15.45;62.34
57232;BME280;43488;46.934;8.276;2023-04-22T10:13:17;95921.56;;;15.49;63.72
57232;BME280;43488;46.934;8.276;2023-04-22T10:15:52;95924.28;;;15.59;61.69
57232;BME280;43488;46.934;8.276;2023-04-22T10:18:25;95920.28;;;15.83;64.07
57232;BME280;43488;46.934;8.276;2023-04-22T10:21:00;95917.38;;;15.85;62.97
57232;BME280;43488;46.934;8.276;2023-04-22T10:23:31;95923.63;;;16.06;62.42
57232;BME280;43488;46.934;8.276;2023-04-22T10:25:59;95919.22;;;16.27;63.71
57232;BME280;43488;46.934;8.276;2023-04-22T10:28:27;95914.22;;;16.30;63.20
57232;BME280;43488;46.934;8.276;2023-04-22T10:31:05;95909.34;;;16.17;62.35
57232;BME280;43488;46.934;8.276;2023-04-22T10:33:35;95913.09;;;16.26;61.93
57232;BME280;43488;46.934;8.276;2023-04-22T10:36:18;95920.00;;;16.27;63.12
57232;BME280;43488;46.934;8.276;2023-04-22T10:41:49;95912.13;;;16.42;62.05
57232;BME280;43488;46.934;8.276;2023-04-22T10:44:18;95909.78;;;16.46;61.68
57232;BME280;43488;46.934;8.276;2023-04-22T10:46:56;95907.94;;;16.46;60.30
57232;BME280;43488;46.934;8.276;2023-04-22T10:49:28;95922.25;;;16.45;60.21
57232;BME280;43488;46.934;8.276;2023-04-22T10:51:59;95916.59;;;16.32;57.47
57232;BME280;43488;46.934;8.276;2023-04-22T10:57:11;95930.97;;;16.36;60.77
57232;BME280;43488;46.934;8.276;2023-04-22T10:59:51;95926.22;;;16.38;59.26
57232;BME280;43488;46.934;8.276;2023-04-22T11:02:21;95931.00;;;16.41;60.58
57232;BME280;43488;46.934;8.276;2023-04-22T11:05:21;95928.06;;;16.37;61.25
57232;BME280;43488;46.934;8.276;2023-04-22T11:07:51;95938.97;;;16.41;57.13
57232;BME280;43488;46.934;8.276;2023-04-22T11:10:41;95941.94;;;16.55;55.51
57232;BME280;43488;46.934;8.276;2023-04-22T11:13:17;95938.88;;;16.73;55.78
57232;BME280;43488;46.934;8.276;2023-04-22T11:15:52;95937.38;;;16.97;56.32
57232;BME280;43488;46.934;8.276;2023-04-22T11:18:30;95932.09;;;17.08;54.57
57232;BME280;43488;46.934;8.276;2023-04-22T11:21:05;95940.66;;;17.25;54.76
57232;BME280;43488;46.934;8.276;2023-04-22T11:23:37;95932.94;;;17.23;55.44
57232;BME280;43488;46.934;8.276;2023-04-22T11:26:05;95938.22;;;17.18;53.53
57232;BME280;43488;46.934;8.276;2023-04-22T11:28:33;95948.34;;;17.26;53.59
57232;BME280;43488;46.934;8.276;2023-04-22T11:31:09;95947.84;;;17.45;55.40
57232;BME280;43488;46.934;8.276;2023-04-22T11:33:37;95950.28;;;17.61;55.04
57232;BME280;43488;46.934;8.276;2023-04-22T11:36:13;95951.63;;;17.69;55.85
57232;BME280;43488;46.934;8.276;2023-04-22T11:38:41;95943.41;;;17.71;53.73
57232;BME280;43488;46.934;8.276;2023-04-22T11:41:11;95937.50;;;17.63;55.86
57232;BME280;43488;46.934;8.276;2023-04-22T11:43:46;95934.63;;;17.70;55.59
57232;BME280;43488;46.934;8.276;2023-04-22T11:46:13;95938.34;;;17.84;57.17
57232;BME280;43488;46.934;8.276;2023-04-22T11:48:41;95935.66;;;17.89;56.54
57232;BME280;43488;46.934;8.276;2023-04-22T11:51:10;95935.41;;;17.96;57.23
57232;BME280;43488;46.934;8.276;2023-04-22T11:53:49;95932.22;;;17.89;55.46
57232;BME280;43488;46.934;8.276;2023-04-22T11:56:29;95931.94;;;17.70;56.25
57232;BME280;43488;46.934;8.276;2023-04-22T11:59:15;95939.09;;;17.59;60.10
57232;BME280;43488;46.934;8.276;2023-04-22T12:01:43;95937.47;;;17.43;57.66
57232;BME280;43488;46.934;8.276;2023-04-22T12:04:12;95933.75;;;17.34;60.71
57232;BME280;43488;46.934;8.276;2023-04-22T12:06:40;95932.13;;;17.23;60.23
57232;BME280;43488;46.934;8.276;2023-04-22T12:09:08;95933.72;;;17.14;59.45
57232;BME280;43488;46.934;8.276;2023-04-22T12:11:38;95934.47;;;17.09;59.21
57232;BME280;43488;46.934;8.276;2023-04-22T12:14:14;95928.88;;;17.00;59.80
57232;BME280;43488;46.934;8.276;2023-04-22T12:16:42;95936.00;;;16.90;60.99
57232;BME280;43488;46.934;8.276;2023-04-22T12:19:09;95932.25;;;16.81;60.65
57232;BME280;43488;46.934;8.276;2023-04-22T12:21:43;95937.31;;;16.77;60.63
57232;BME280;43488;46.934;8.276;2023-04-22T12:24:11;95948.69;;;16.72;61.06
57232;BME280;43488;46.934;8.276;2023-04-22T12:26:42;95944.44;;;16.71;60.69
57232;BME280;43488;46.934;8.276;2023-04-22T12:29:10;95951.63;;;16.71;61.57
57232;BME280;43488;46.934;8.276;2023-04-22T12:31:39;95955.03;;;16.66;60.38
57232;BME280;43488;46.934;8.276;2023-04-22T12:34:06;95948.13;;;16.65;59.98
57232;BME280;43488;46.934;8.276;2023-04-22T12:36:44;95937.25;;;16.67;61.02
57232;BME280;43488;46.934;8.276;2023-04-22T12:39:12;95933.59;;;16.78;63.50
57232;BME280;43488;46.934;8.276;2023-04-22T12:41:41;95926.41;;;16.78;64.22
57232;BME280;43488;46.934;8.276;2023-04-22T12:44:11;95929.34;;;16.82;62.45
57232;BME280;43488;46.934;8.276;2023-04-22T12:46:47;95924.59;;;16.89;63.17
57232;BME280;43488;46.934;8.276;2023-04-22T12:49:15;95935.50;;;16.93;63.75
57232;BME280;43488;46.934;8.276;2023-04-22T12:51:48;95930.72;;;16.95;65.75
57232;BME280;43488;46.934;8.276;2023-04-22T12:54:15;95928.34;;;16.93;65.80
57232;BME280;43488;46.934;8.276;2023-04-22T12:56:44;95932.81;;;16.88;66.20
57232;BME280;43488;46.934;8.276;2023-04-22T12:59:13;95933.34;;;16.90;66.20
57232;BME280;43488;46.934;8.276;2023-04-22T13:01:43;95935.75;;;16.86;64.89
57232;BME280;43488;46.934;8.276;2023-04-22T13:04:11;95938.94;;;16.83;63.67
57232;BME280;43488;46.934;8.276;2023-04-22T13:06:39;95942.13;;;16.85;63.83
57232;BME280;43488;46.934;8.276;2023-04-22T13:09:08;95941.06;;;16.86;63.36
57232;BME280;43488;46.934;8.276;2023-04-22T13:11:35;95951.16;;;16.84;64.39
57232;BME280;43488;46.934;8.276;2023-04-22T13:14:04;95954.88;;;16.83;64.53
57232;BME280;43488;46.934;8.276;2023-04-22T13:16:31;95956.97;;;16.81;63.02
57232;BME280;43488;46.934;8.276;2023-04-22T13:18:58;95952.72;;;16.75;62.57
57232;BME280;43488;46.934;8.276;2023-04-22T13:21:26;95953.78;;;16.74;62.55
57232;BME280;43488;46.934;8.276;2023-04-22T13:23:54;95949.19;;;16.64;62.93
57232;BME280;43488;46.934;8.276;2023-04-22T13:26:22;95958.75;;;16.65;61.49
57232;BME280;43488;46.934;8.276;2023-04-22T13:28:55;95950.81;;;16.70;63.53
57232;BME280;43488;46.934;8.276;2023-04-22T13:31:23;95958.53;;;16.72;63.77